sensor_id;sensor_type;location;lat;lon;timestamp;pressure;altitude;pressure_sealevel;temperature;humidity
59825;BME280;45703;50.898;6.054;2023-07-20T00:01:13;100023.19;;;17.39;81.58
59825;BME280;45703;50.898;6.054;2023-07-20T00:03:38;100026.13;;;17.42;81.54
59825;BME280;45703;50.898;6.054;2023-07-20T00:06:04;100028.28;;;17.41;80.35
59825;BME280;45703;50.898;6.054;2023-07-20T00:08:30;100026.69;;;17.40;81.17
59825;BME280;45703;50.898;6.054;2023-07-20T00:10:55;100023.97;;;17.35;81.74
59825;BME280;45703;50.898;6.054;2023-07-20T00:13:21;100022.03;;;17.30;80.87
59825;BME280;45703;50.898;6.054;2023-07-20T00:15:47;100021.78;;;17.32;81.64
59825;BME280;45703;50.898;6.054;2023-07-20T00:18:12;100021.78;;;17.27;81.42
59825;BME280;45703;50.898;6.054;2023-07-20T00:20:38;100030.97;;;17.26;82.32
59825;BME280;45703;50.898;6.054;2023-07-20T00:23:03;100020.72;;;17.23;82.26
59825;BME280;45703;50.898;6.054;2023-07-20T00:25:29;100017.19;;;17.17;82.28
59825;BME280;45703;50.898;6.054;2023-07-20T00:27:54;100025.81;;;17.19;82.46
59825;BME280;45703;50.898;6.054;2023-07-20T00:30:20;100016.94;;;17.14;82.24
59825;BME280;45703;50.898;6.054;2023-07-20T00:32:45;100022.88;;;17.21;82.71
59825;BME280;45703;50.898;6.054;2023-07-20T00:35:11;100017.19;;;17.12;82.48
59825;BME280;45703;50.898;6.054;2023-07-20T00:37:38;100017.47;;;17.16;82.83
59825;BME280;45703;50.898;6.054;2023-07-20T00:40:04;100011.50;;;17.04;83.03
59825;BME280;45703;50.898;6.054;2023-07-20T00:42:30;100013.69;;;17.12;82.94
59825;BME280;45703;50.898;6.054;2023-07-20T00:44:55;100017.19;;;17.07;82.78
59825;BME280;45703;50.898;6.054;2023-07-20T00:47:20;100020.13;;;17.06;82.84
59825;BME280;45703;50.898;6.054;2023-07-20T00:49:46;100017.44;;;17.06;83.38
59825;BME280;45703;50.898;6.054;2023-07-20T00:52:12;99998.03;;;16.94;83.56
59825;BME280;45703;50.898;6.054;2023-07-20T00:54:39;100006.09;;;16.94;83.64
59825;BME280;45703;50.898;6.054;2023-07-20T00:57:07;100017.44;;;16.91;83.23
59825;BME280;45703;50.898;6.054;2023-07-20T00:59:32;100006.38;;;16.87;83.68
59825;BME280;45703;50.898;6.054;2023-07-20T01:01:58;100012.56;;;16.88;83.69
59825;BME280;45703;50.898;6.054;2023-07-20T01:04:23;100010.41;;;16.85;84.49
59825;BME280;45703;50.898;6.054;2023-07-20T01:07:03;100021.19;;;16.85;83.92
59825;BME280;45703;50.898;6.054;2023-07-20T01:12:52;100022.81;;;16.81;83.76
59825;BME280;45703;50.898;6.054;2023-07-20T01:15:18;100020.91;;;16.76;84.77
59825;BME280;45703;50.898;6.054;2023-07-20T01:17:44;100017.94;;;16.73;84.21
59825;BME280;45703;50.898;6.054;2023-07-20T01:20:12;100012.28;;;16.74;83.19
59825;BME280;45703;50.898;6.054;2023-07-20T01:33:16;100016.53;;;16.55;85.28
59825;BME280;45703;50.898;6.054;2023-07-20T01:35:45;100009.78;;;16.53;85.77
59825;BME280;45703;50.898;6.054;2023-07-20T01:38:12;100007.09;;;16.53;85.19
59825;BME280;45703;50.898;6.054;2023-07-20T01:40:39;100006.31;;;16.57;84.69
59825;BME280;45703;50.898;6.054;2023-07-20T01:43:05;100017.88;;;16.58;85.16
59825;BME280;45703;50.898;6.054;2023-07-20T01:45:31;100003.59;;;16.52;86.06
59825;BME280;45703;50.898;6.054;2023-07-20T01:47:56;100022.22;;;16.59;84.26
59825;BME280;45703;50.898;6.054;2023-07-20T01:50:22;100017.88;;;16.58;84.75
59825;BME280;45703;50.898;6.054;2023-07-20T01:52:47;100006.53;;;16.51;84.72
59825;BME280;45703;50.898;6.054;2023-07-20T01:55:13;100019.25;;;16.55;84.90
59825;BME280;45703;50.898;6.054;2023-07-20T01:57:38;100021.69;;;16.62;84.94
59825;BME280;45703;50.898;6.054;2023-07-20T02:00:04;100010.09;;;16.61;84.42
59825;BME280;45703;50.898;6.054;2023-07-20T02:02:30;100014.16;;;16.69;84.07
59825;BME280;45703;50.898;6.054;2023-07-20T02:04:55;100015.50;;;16.66;84.96
59825;BME280;45703;50.898;6.054;2023-07-20T02:07:21;100010.38;;;16.70;85.12
59825;BME280;45703;50.898;6.054;2023-07-20T02:09:46;100014.97;;;16.74;84.32
59825;BME280;45703;50.898;6.054;2023-07-20T02:12:11;100001.22;;;16.66;84.23
59825;BME280;45703;50.898;6.054;2023-07-20T02:14:37;100013.63;;;16.72;84.49
59825;BME280;45703;50.898;6.054;2023-07-20T02:17:02;100013.88;;;16.70;83.61
59825;BME280;45703;50.898;6.054;2023-07-20T02:19:29;100013.09;;;16.75;83.42
59825;BME280;45703;50.898;6.054;2023-07-20T02:21:55;100011.47;;;16.79;83.42
59825;BME280;45703;50.898;6.054;2023-07-20T02:24:20;100019.03;;;16.82;84.35
59825;BME280;45703;50.898;6.054;2023-07-20T02:26:45;100014.72;;;16.81;83.08
59825;BME280;45703;50.898;6.054;2023-07-20T02:29:11;100005.56;;;16.77;83.68
59825;BME280;45703;50.898;6.054;2023-07-20T02:31:39;100010.41;;;16.85;83.11
59825;BME280;45703;50.898;6.054;2023-07-20T02:34:07;100002.03;;;16.81;83.77
59825;BME280;45703;50.898;6.054;2023-07-20T02:36:34;100010.41;;;16.80;84.01
59825;BME280;45703;50.898;6.054;2023-07-20T02:38:59;100006.09;;;16.74;84.09
59825;BME280;45703;50.898;6.054;2023-07-20T02:41:25;100004.19;;;16.74;83.26
59825;BME280;45703;50.898;6.054;2023-07-20T02:43:50;100012.56;;;16.78;83.83
59825;BME280;45703;50.898;6.054;2023-07-20T02:46:16;100003.09;;;16.75;83.17
59825;BME280;45703;50.898;6.054;2023-07-20T02:48:41;100008.78;;;16.79;83.86
59825;BME280;45703;50.898;6.054;2023-07-20T02:51:07;100010.66;;;16.73;83.45
59825;BME280;45703;50.898;6.054;2023-07-20T02:53:33;100008.25;;;16.72;83.50
59825;BME280;45703;50.898;6.054;2023-07-20T02:55:58;100005.00;;;16.65;83.66
59825;BME280;45703;50.898;6.054;2023-07-20T02:58:24;100011.72;;;16.67;83.59
59825;BME280;45703;50.898;6.054;2023-07-20T03:00:49;100013.63;;;16.62;83.85
59825;BME280;45703;50.898;6.054;2023-07-20T03:03:15;100008.72;;;16.54;83.69
59825;BME280;45703;50.898;6.054;2023-07-20T03:05:41;100028.41;;;16.59;84.69
59825;BME280;45703;50.898;6.054;2023-07-20T03:08:06;100014.66;;;16.56;84.03
59825;BME280;45703;50.898;6.054;2023-07-20T03:10:32;100021.09;;;16.50;84.15
59825;BME280;45703;50.898;6.054;2023-07-20T03:12:58;100024.63;;;16.50;83.71
59825;BME280;45703;50.898;6.054;2023-07-20T03:15:23;100021.34;;;16.43;83.85
59825;BME280;45703;50.898;6.054;2023-07-20T03:17:49;100028.09;;;16.46;84.10
59825;BME280;45703;50.898;6.054;2023-07-20T03:20:14;100020.47;;;16.33;85.92
59825;BME280;45703;50.898;6.054;2023-07-20T03:22:40;100035.06;;;16.37;85.30
59825;BME280;45703;50.898;6.054;2023-07-20T03:25:05;100036.63;;;16.28;84.60
59825;BME280;45703;50.898;6.054;2023-07-20T03:27:31;100033.06;;;16.17;85.13
59825;BME280;45703;50.898;6.054;2023-07-20T03:29:56;100046.53;;;16.22;84.08
59825;BME280;45703;50.898;6.054;2023-07-20T03:32:22;100040.91;;;16.24;85.74
59825;BME280;45703;50.898;6.054;2023-07-20T03:34:47;100047.91;;;16.20;85.21
59825;BME280;45703;50.898;6.054;2023-07-20T03:37:13;100046.31;;;16.24;85.52
59825;BME280;45703;50.898;6.054;2023-07-20T03:39:38;100052.75;;;16.23;85.56
59825;BME280;45703;50.898;6.054;2023-07-20T03:42:04;100047.91;;;16.20;84.91
59825;BME280;45703;50.898;6.054;2023-07-20T03:44:30;100052.22;;;16.21;85.47
59825;BME280;45703;50.898;6.054;2023-07-20T03:46:55;100051.66;;;16.19;86.01
59825;BME280;45703;50.898;6.054;2023-07-20T03:49:21;100055.97;;;16.20;86.89
59825;BME280;45703;50.898;6.054;2023-07-20T03:51:46;100049.50;;;16.16;86.20
59825;BME280;45703;50.898;6.054;2023-07-20T03:54:11;100051.66;;;16.19;87.24
59825;BME280;45703;50.898;6.054;2023-07-20T03:56:37;100044.34;;;16.14;86.53
59825;BME280;45703;50.898;6.054;2023-07-20T03:59:02;100057.59;;;16.21;89.81
59825;BME280;45703;50.898;6.054;2023-07-20T04:01:27;100052.75;;;16.18;86.69
59825;BME280;45703;50.898;6.054;2023-07-20T04:03:53;100055.97;;;16.20;87.62
59825;BME280;45703;50.898;6.054;2023-07-20T04:06:18;100067.31;;;16.22;87.84
59825;BME280;45703;50.898;6.054;2023-07-20T04:08:44;100068.91;;;16.23;87.50
59825;BME280;45703;50.898;6.054;2023-07-20T04:11:12;100063.53;;;16.23;86.62
59825;BME280;45703;50.898;6.054;2023-07-20T04:13:38;100061.09;;;16.26;87.03
59825;BME280;45703;50.898;6.054;2023-07-20T04:16:03;100063.00;;;16.26;86.61
59825;BME280;45703;50.898;6.054;2023-07-20T04:18:29;100056.78;;;16.25;86.89
59825;BME280;45703;50.898;6.054;2023-07-20T04:20:54;100060.31;;;16.26;88.11
59825;BME280;45703;50.898;6.054;2023-07-20T04:23:19;100057.63;;;16.26;87.07
59825;BME280;45703;50.898;6.054;2023-07-20T04:25:45;100058.94;;;16.23;88.00
59825;BME280;45703;50.898;6.054;2023-07-20T04:28:10;100049.22;;;16.17;86.93
59825;BME280;45703;50.898;6.054;2023-07-20T04:30:36;100059.25;;;16.27;87.16
59825;BME280;45703;50.898;6.054;2023-07-20T04:33:03;100058.16;;;16.23;88.94
59825;BME280;45703;50.898;6.054;2023-07-20T04:35:49;100056.53;;;16.27;87.47
59825;BME280;45703;50.898;6.054;2023-07-20T04:38:15;100068.66;;;16.29;87.40
59825;BME280;45703;50.898;6.054;2023-07-20T04:40:45;100070.63;;;16.34;89.06
59825;BME280;45703;50.898;6.054;2023-07-20T04:43:12;100071.44;;;16.34;87.67
59825;BME280;45703;50.898;6.054;2023-07-20T04:45:37;100068.50;;;16.41;88.06
59825;BME280;45703;50.898;6.054;2023-07-20T04:48:03;100071.72;;;16.38;88.46
59825;BME280;45703;50.898;6.054;2023-07-20T04:50:28;100077.13;;;16.43;87.08
59825;BME280;45703;50.898;6.054;2023-07-20T04:52:54;100072.00;;;16.41;88.08
59825;BME280;45703;50.898;6.054;2023-07-20T04:55:19;100078.19;;;16.42;88.05
59825;BME280;45703;50.898;6.054;2023-07-20T04:57:44;100068.78;;;16.39;89.00
59825;BME280;45703;50.898;6.054;2023-07-20T05:00:10;100061.97;;;16.32;87.87
59825;BME280;45703;50.898;6.054;2023-07-20T05:02:38;100073.34;;;16.39;89.93
59825;BME280;45703;50.898;6.054;2023-07-20T05:05:03;100085.75;;;16.45;88.48
59825;BME280;45703;50.898;6.054;2023-07-20T05:07:31;100075.50;;;16.42;88.40
59825;BME280;45703;50.898;6.054;2023-07-20T05:09:57;100082.50;;;16.43;89.04
59825;BME280;45703;50.898;6.054;2023-07-20T05:12:22;100082.53;;;16.48;88.10
59825;BME280;45703;50.898;6.054;2023-07-20T05:14:48;100081.22;;;16.50;88.02
59825;BME280;45703;50.898;6.054;2023-07-20T05:17:13;100072.56;;;16.48;88.13
59825;BME280;45703;50.898;6.054;2023-07-20T05:19:39;100073.94;;;16.56;87.70
59825;BME280;45703;50.898;6.054;2023-07-20T05:22:04;100082.56;;;16.58;88.23
59825;BME280;45703;50.898;6.054;2023-07-20T05:24:30;100080.69;;;16.58;88.49
59825;BME280;45703;50.898;6.054;2023-07-20T05:26:57;100067.75;;;16.55;87.48
59825;BME280;45703;50.898;6.054;2023-07-20T05:29:22;100075.59;;;16.62;89.03
59825;BME280;45703;50.898;6.054;2023-07-20T05:31:48;100071.84;;;16.63;88.63
59825;BME280;45703;50.898;6.054;2023-07-20T05:34:13;100070.22;;;16.67;88.40
59825;BME280;45703;50.898;6.054;2023-07-20T05:36:38;100080.50;;;16.75;88.29
59825;BME280;45703;50.898;6.054;2023-07-20T05:39:04;100075.66;;;16.77;87.83
59825;BME280;45703;50.898;6.054;2023-07-20T05:41:29;100081.06;;;16.87;87.91
59825;BME280;45703;50.898;6.054;2023-07-20T05:43:55;100073.81;;;16.87;88.42
59825;BME280;45703;50.898;6.054;2023-07-20T05:46:20;100086.47;;;16.92;86.95
59825;BME280;45703;50.898;6.054;2023-07-20T05:48:46;100083.78;;;16.92;87.80
59825;BME280;45703;50.898;6.054;2023-07-20T05:51:11;100074.59;;;16.83;87.95
59825;BME280;45703;50.898;6.054;2023-07-20T05:53:36;100089.69;;;16.89;88.00
59825;BME280;45703;50.898;6.054;2023-07-20T05:56:03;100083.50;;;16.88;88.90
59825;BME280;45703;50.898;6.054;2023-07-20T05:58:28;100091.06;;;16.86;87.98
59825;BME280;45703;50.898;6.054;2023-07-20T06:00:54;100090.78;;;16.88;87.78
59825;BME280;45703;50.898;6.054;2023-07-20T06:03:19;100091.88;;;16.97;87.96
59825;BME280;45703;50.898;6.054;2023-07-20T06:05:46;100095.41;;;17.07;88.94
59825;BME280;45703;50.898;6.054;2023-07-20T06:08:12;100093.50;;;17.08;88.62
59825;BME280;45703;50.898;6.054;2023-07-20T06:10:37;100100.03;;;17.12;87.15
59825;BME280;45703;50.898;6.054;2023-07-20T06:13:03;100107.31;;;17.21;86.19
59825;BME280;45703;50.898;6.054;2023-07-20T06:15:31;100107.84;;;17.23;87.34
59825;BME280;45703;50.898;6.054;2023-07-20T06:17:57;100107.84;;;17.28;86.44
59825;BME280;45703;50.898;6.054;2023-07-20T06:20:24;100103.81;;;17.26;85.76
59825;BME280;45703;50.898;6.054;2023-07-20T06:22:49;100108.72;;;17.34;86.30
59825;BME280;45703;50.898;6.054;2023-07-20T06:25:15;100110.63;;;17.38;85.59
59825;BME280;45703;50.898;6.054;2023-07-20T06:27:40;100109.53;;;17.44;87.32
59825;BME280;45703;50.898;6.054;2023-07-20T06:30:06;100115.75;;;17.49;85.61
59825;BME280;45703;50.898;6.054;2023-07-20T06:32:31;100110.09;;;17.51;85.56
59825;BME280;45703;50.898;6.054;2023-07-20T06:34:57;100118.44;;;17.59;85.30
59825;BME280;45703;50.898;6.054;2023-07-20T06:37:23;100107.66;;;17.69;85.57
59825;BME280;45703;50.898;6.054;2023-07-20T06:39:49;100107.66;;;17.79;84.97
59825;BME280;45703;50.898;6.054;2023-07-20T06:42:14;100099.56;;;17.84;84.13
59825;BME280;45703;50.898;6.054;2023-07-20T06:44:39;100104.69;;;17.96;83.58
59825;BME280;45703;50.898;6.054;2023-07-20T06:47:05;100117.88;;;18.07;83.51
59825;BME280;45703;50.898;6.054;2023-07-20T06:49:30;100113.31;;;18.08;83.11
59825;BME280;45703;50.898;6.054;2023-07-20T06:51:56;100101.13;;;18.05;83.37
59825;BME280;45703;50.898;6.054;2023-07-20T06:54:24;100107.06;;;18.07;82.79
59825;BME280;45703;50.898;6.054;2023-07-20T06:56:49;100100.06;;;18.06;82.75
59825;BME280;45703;50.898;6.054;2023-07-20T06:59:15;100101.69;;;18.12;82.64
59825;BME280;45703;50.898;6.054;2023-07-20T07:01:40;100096.28;;;18.12;82.38
59825;BME280;45703;50.898;6.054;2023-07-20T07:04:06;100114.63;;;18.20;82.00
59825;BME280;45703;50.898;6.054;2023-07-20T07:06:31;100115.72;;;18.19;82.61
59825;BME280;45703;50.898;6.054;2023-07-20T07:08:58;100108.41;;;18.20;81.36
59825;BME280;45703;50.898;6.054;2023-07-20T07:11:23;100113.03;;;18.19;80.87
59825;BME280;45703;50.898;6.054;2023-07-20T07:13:49;100110.84;;;18.21;80.18
59825;BME280;45703;50.898;6.054;2023-07-20T07:16:16;100110.56;;;18.18;80.75
59825;BME280;45703;50.898;6.054;2023-07-20T07:18:45;100135.72;;;18.23;80.88
59825;BME280;45703;50.898;6.054;2023-07-20T07:21:10;100118.97;;;18.16;80.66
59825;BME280;45703;50.898;6.054;2023-07-20T07:23:37;100123.84;;;18.29;80.24
59825;BME280;45703;50.898;6.054;2023-07-20T07:26:03;100112.19;;;18.39;79.27
59825;BME280;45703;50.898;6.054;2023-07-20T07:28:29;100121.34;;;18.53;79.38
59825;BME280;45703;50.898;6.054;2023-07-20T07:30:55;100123.16;;;18.72;79.59
59825;BME280;45703;50.898;6.054;2023-07-20T07:33:22;100122.56;;;18.85;79.06
59825;BME280;45703;50.898;6.054;2023-07-20T07:35:47;100132.75;;;18.98;77.47
59825;BME280;45703;50.898;6.054;2023-07-20T07:38:13;100123.31;;;19.00;77.25
59825;BME280;45703;50.898;6.054;2023-07-20T07:40:38;100124.38;;;18.99;76.59
59825;BME280;45703;50.898;6.054;2023-07-20T07:43:04;100141.38;;;19.05;75.29
59825;BME280;45703;50.898;6.054;2023-07-20T07:45:32;100139.25;;;19.02;75.36
59825;BME280;45703;50.898;6.054;2023-07-20T07:47:57;100136.84;;;18.95;75.76
59825;BME280;45703;50.898;6.054;2023-07-20T07:50:23;100134.41;;;18.94;76.38
59825;BME280;45703;50.898;6.054;2023-07-20T07:52:48;100140.66;;;18.94;76.10
59825;BME280;45703;50.898;6.054;2023-07-20T07:55:14;100145.22;;;18.99;75.59
59825;BME280;45703;50.898;6.054;2023-07-20T07:57:41;100152.22;;;19.05;75.45
59825;BME280;45703;50.898;6.054;2023-07-20T08:00:07;100145.19;;;19.04;76.05
59825;BME280;45703;50.898;6.054;2023-07-20T08:02:36;100139.97;;;19.22;75.29
59825;BME280;45703;50.898;6.054;2023-07-20T08:05:02;100149.63;;;19.38;74.54
59825;BME280;45703;50.898;6.054;2023-07-20T08:07:27;100143.63;;;19.46;75.07
59825;BME280;45703;50.898;6.054;2023-07-20T08:09:53;100140.28;;;19.59;74.29
59825;BME280;45703;50.898;6.054;2023-07-20T08:12:18;100127.25;;;19.61;73.80
59825;BME280;45703;50.898;6.054;2023-07-20T08:14:45;100119.94;;;19.62;74.17
59825;BME280;45703;50.898;6.054;2023-07-20T08:17:10;100128.63;;;19.59;72.89
59825;BME280;45703;50.898;6.054;2023-07-20T08:19:36;100145.41;;;19.61;72.41
59825;BME280;45703;50.898;6.054;2023-07-20T08:22:04;100142.13;;;19.69;72.13
59825;BME280;45703;50.898;6.054;2023-07-20T08:24:30;100138.84;;;19.72;71.04
59825;BME280;45703;50.898;6.054;2023-07-20T08:26:55;100143.91;;;19.78;70.43
59825;BME280;45703;50.898;6.054;2023-07-20T08:29:21;100139.84;;;19.81;69.80
59825;BME280;45703;50.898;6.054;2023-07-20T08:31:46;100136.63;;;19.79;69.43
59825;BME280;45703;50.898;6.054;2023-07-20T08:34:12;100136.84;;;19.82;69.80
59825;BME280;45703;50.898;6.054;2023-07-20T08:36:37;100137.13;;;19.81;70.43
59825;BME280;45703;50.898;6.054;2023-07-20T08:39:02;100138.41;;;19.88;69.51
59825;BME280;45703;50.898;6.054;2023-07-20T08:41:28;100135.16;;;19.86;70.41
59825;BME280;45703;50.898;6.054;2023-07-20T08:43:54;100144.16;;;19.82;68.84
59825;BME280;45703;50.898;6.054;2023-07-20T08:46:22;100146.34;;;19.80;69.74
59825;BME280;45703;50.898;6.054;2023-07-20T08:48:48;100133.91;;;19.79;67.88
59825;BME280;45703;50.898;6.054;2023-07-20T08:51:15;100134.38;;;19.86;69.15
59825;BME280;45703;50.898;6.054;2023-07-20T08:53:41;100140.53;;;19.96;67.65
59825;BME280;45703;50.898;6.054;2023-07-20T08:56:09;100138.28;;;20.08;68.01
59825;BME280;45703;50.898;6.054;2023-07-20T08:58:36;100133.06;;;20.12;68.47
59825;BME280;45703;50.898;6.054;2023-07-20T09:01:06;100132.44;;;20.25;67.49
59825;BME280;45703;50.898;6.054;2023-07-20T09:03:34;100134.47;;;20.38;67.48
59825;BME280;45703;50.898;6.054;2023-07-20T09:05:59;100143.81;;;20.50;66.38
59825;BME280;45703;50.898;6.054;2023-07-20T09:08:25;100128.84;;;20.52;66.02
59825;BME280;45703;50.898;6.054;2023-07-20T09:10:50;100137.97;;;20.61;65.79
59825;BME280;45703;50.898;6.054;2023-07-20T09:13:16;100123.50;;;20.71;65.44
59825;BME280;45703;50.898;6.054;2023-07-20T09:15:46;100130.16;;;20.83;65.91
59825;BME280;45703;50.898;6.054;2023-07-20T09:18:23;100130.84;;;20.94;65.68
59825;BME280;45703;50.898;6.054;2023-07-20T09:20:49;100124.47;;;20.80;62.62
59825;BME280;45703;50.898;6.054;2023-07-20T09:23:14;100122.03;;;20.83;63.96
59825;BME280;45703;50.898;6.054;2023-07-20T09:25:40;100137.75;;;20.81;63.87
59825;BME280;45703;50.898;6.054;2023-07-20T09:28:06;100126.97;;;20.76;64.07
59825;BME280;45703;50.898;6.054;2023-07-20T09:30:31;100130.09;;;20.88;64.32
59825;BME280;45703;50.898;6.054;2023-07-20T09:32:58;100128.84;;;20.99;64.34
59825;BME280;45703;50.898;6.054;2023-07-20T09:35:24;100138.53;;;21.05;61.91
59825;BME280;45703;50.898;6.054;2023-07-20T09:37:54;100123.63;;;20.84;62.47
59825;BME280;45703;50.898;6.054;2023-07-20T09:40:20;100137.75;;;20.81;63.10
59825;BME280;45703;50.898;6.054;2023-07-20T09:42:46;100129.09;;;20.79;63.30
59825;BME280;45703;50.898;6.054;2023-07-20T09:45:11;100124.19;;;20.81;63.43
59825;BME280;45703;50.898;6.054;2023-07-20T09:47:37;100126.22;;;20.94;63.04
59825;BME280;45703;50.898;6.054;2023-07-20T09:50:04;100124.97;;;21.05;64.03
59825;BME280;45703;50.898;6.054;2023-07-20T09:52:30;100119.91;;;21.17;64.33
59825;BME280;45703;50.898;6.054;2023-07-20T09:54:57;100124.72;;;21.25;61.96
59825;BME280;45703;50.898;6.054;2023-07-20T09:57:23;100130.94;;;21.26;62.44
59825;BME280;45703;50.898;6.054;2023-07-20T09:59:48;100121.56;;;21.18;61.48
59825;BME280;45703;50.898;6.054;2023-07-20T10:02:21;100120.38;;;21.24;61.44
59825;BME280;45703;50.898;6.054;2023-07-20T10:04:53;100121.47;;;21.23;61.11
59825;BME280;45703;50.898;6.054;2023-07-20T10:07:19;100125.56;;;21.21;61.48
59825;BME280;45703;50.898;6.054;2023-07-20T10:09:48;100131.69;;;21.31;62.41
59825;BME280;45703;50.898;6.054;2023-07-20T10:12:15;100127.47;;;21.39;62.50
59825;BME280;45703;50.898;6.054;2023-07-20T10:14:46;100120.31;;;21.48;62.51
59825;BME280;45703;50.898;6.054;2023-07-20T10:17:17;100121.97;;;21.62;61.78
59825;BME280;45703;50.898;6.054;2023-07-20T10:19:46;100120.78;;;21.68;59.89
59825;BME280;45703;50.898;6.054;2023-07-20T10:22:14;100108.25;;;21.72;59.62
59825;BME280;45703;50.898;6.054;2023-07-20T10:24:46;100112.00;;;21.76;60.93
59825;BME280;45703;50.898;6.054;2023-07-20T10:27:12;100113.44;;;21.87;61.36
59825;BME280;45703;50.898;6.054;2023-07-20T10:29:38;100107.72;;;22.02;60.99
59825;BME280;45703;50.898;6.054;2023-07-20T10:32:05;100116.72;;;22.16;60.35
59825;BME280;45703;50.898;6.054;2023-07-20T10:34:31;100109.50;;;22.25;59.74
59825;BME280;45703;50.898;6.054;2023-07-20T10:36:59;100111.50;;;22.33;60.33
59825;BME280;45703;50.898;6.054;2023-07-20T10:39:26;100104.69;;;22.49;60.38
59825;BME280;45703;50.898;6.054;2023-07-20T10:42:22;100105.00;;;22.61;60.10
59825;BME280;45703;50.898;6.054;2023-07-20T10:44:47;100095.22;;;22.60;57.43
59825;BME280;45703;50.898;6.054;2023-07-20T10:47:13;100098.34;;;22.67;59.38
59825;BME280;45703;50.898;6.054;2023-07-20T10:49:57;100096.66;;;22.71;59.05
59825;BME280;45703;50.898;6.054;2023-07-20T10:52:23;100092.88;;;22.67;57.63
59825;BME280;45703;50.898;6.054;2023-07-20T10:54:49;100090.38;;;22.57;58.09
59825;BME280;45703;50.898;6.054;2023-07-20T10:57:23;100087.59;;;22.48;58.74
59825;BME280;45703;50.898;6.054;2023-07-20T10:59:49;100092.81;;;22.45;56.06
59825;BME280;45703;50.898;6.054;2023-07-20T11:02:18;100089.59;;;22.43;57.22
59825;BME280;45703;50.898;6.054;2023-07-20T11:04:47;100083.63;;;22.41;56.69
59825;BME280;45703;50.898;6.054;2023-07-20T11:07:17;100087.47;;;22.53;58.07
59825;BME280;45703;50.898;6.054;2023-07-20T11:09:45;100094.00;;;22.66;56.94
59825;BME280;45703;50.898;6.054;2023-07-20T11:12:15;100089.97;;;22.77;56.86
59825;BME280;45703;50.898;6.054;2023-07-20T11:14:42;100081.59;;;22.87;57.43
59825;BME280;45703;50.898;6.054;2023-07-20T11:17:15;100081.66;;;22.95;55.81
59825;BME280;45703;50.898;6.054;2023-07-20T11:19:41;100087.03;;;23.00;55.05
59825;BME280;45703;50.898;6.054;2023-07-20T11:22:07;100080.03;;;23.08;56.85
59825;BME280;45703;50.898;6.054;2023-07-20T11:24:41;100070.38;;;23.15;56.27
59825;BME280;45703;50.898;6.054;2023-07-20T11:27:07;100068.22;;;23.26;54.66
59825;BME280;45703;50.898;6.054;2023-07-20T11:29:34;100076.78;;;23.33;53.41
59825;BME280;45703;50.898;6.054;2023-07-20T11:32:00;100070.94;;;23.26;53.13
59825;BME280;45703;50.898;6.054;2023-07-20T11:34:26;100068.22;;;23.26;53.63
59825;BME280;45703;50.898;6.054;2023-07-20T11:36:53;100073.66;;;23.26;52.90
59825;BME280;45703;50.898;6.054;2023-07-20T11:39:21;100066.69;;;23.20;53.52
59825;BME280;45703;50.898;6.054;2023-07-20T11:41:55;100078.19;;;23.30;55.31
59825;BME280;45703;50.898;6.054;2023-07-20T11:44:27;100074.53;;;23.35;54.28
59825;BME280;45703;50.898;6.054;2023-07-20T11:47:08;100068.22;;;23.48;54.35
59825;BME280;45703;50.898;6.054;2023-07-20T11:49:40;100076.66;;;23.59;53.82
59825;BME280;45703;50.898;6.054;2023-07-20T11:52:09;100063.72;;;23.65;53.67
59825;BME280;45703;50.898;6.054;2023-07-20T11:54:37;100059.66;;;23.62;49.82
59825;BME280;45703;50.898;6.054;2023-07-20T11:57:03;100058.81;;;23.75;50.73
59825;BME280;45703;50.898;6.054;2023-07-20T11:59:30;100059.69;;;23.84;51.42
59825;BME280;45703;50.898;6.054;2023-07-20T12:01:57;100046.47;;;23.78;50.20
59825;BME280;45703;50.898;6.054;2023-07-20T12:04:23;100047.66;;;23.85;50.22
59825;BME280;45703;50.898;6.054;2023-07-20T12:06:48;100058.75;;;23.89;48.88
59825;BME280;45703;50.898;6.054;2023-07-20T12:09:14;100058.50;;;23.99;50.75
59825;BME280;45703;50.898;6.054;2023-07-20T12:11:43;100045.16;;;23.97;50.49
59825;BME280;45703;50.898;6.054;2023-07-20T12:14:09;100051.41;;;23.98;49.65
59825;BME280;45703;50.898;6.054;2023-07-20T12:16:36;100051.38;;;23.89;50.54
59825;BME280;45703;50.898;6.054;2023-07-20T12:19:05;100041.44;;;23.71;50.47
59825;BME280;45703;50.898;6.054;2023-07-20T12:21:32;100048.34;;;23.69;51.44
59825;BME280;45703;50.898;6.054;2023-07-20T12:23:59;100041.63;;;23.75;51.38
59825;BME280;45703;50.898;6.054;2023-07-20T12:26:25;100037.56;;;23.86;51.92
59825;BME280;45703;50.898;6.054;2023-07-20T12:28:52;100037.75;;;23.89;50.40
59825;BME280;45703;50.898;6.054;2023-07-20T12:31:18;100037.75;;;23.89;51.28
59825;BME280;45703;50.898;6.054;2023-07-20T12:33:43;100014.38;;;23.75;50.08
59825;BME280;45703;50.898;6.054;2023-07-20T12:36:09;100039.41;;;23.77;51.11
59825;BME280;45703;50.898;6.054;2023-07-20T12:38:35;100026.34;;;23.65;52.12
59825;BME280;45703;50.898;6.054;2023-07-20T12:41:02;100017.00;;;23.58;51.97
59825;BME280;45703;50.898;6.054;2023-07-20T12:43:35;100021.34;;;23.59;52.09
59825;BME280;45703;50.898;6.054;2023-07-20T12:46:00;100024.75;;;23.43;51.96
59825;BME280;45703;50.898;6.054;2023-07-20T12:48:26;100028.34;;;23.51;51.14
59825;BME280;45703;50.898;6.054;2023-07-20T12:50:51;100026.97;;;23.62;51.65
59825;BME280;45703;50.898;6.054;2023-07-20T12:53:17;100019.13;;;23.69;52.33
59825;BME280;45703;50.898;6.054;2023-07-20T12:55:42;100018.66;;;23.67;51.98
59825;BME280;45703;50.898;6.054;2023-07-20T12:58:08;100010.34;;;23.72;51.47
59825;BME280;45703;50.898;6.054;2023-07-20T13:00:34;100020.56;;;23.89;52.68